createdAt,value
2023-04-15T00:00:40.047Z,3.34
2023-04-15T00:03:17.073Z,3.33
2023-04-15T00:05:48.175Z,3.32
2023-04-15T00:08:22.301Z,3.35
2023-04-15T00:10:51.446Z,3.31
2023-04-15T00:13:24.075Z,3.31
2023-04-15T00:15:52.794Z,3.31
2023-04-15T00:18:22.573Z,3.31
2023-04-15T00:20:50.043Z,3.33
2023-04-15T00:23:19.552Z,3.33
2023-04-15T00:25:51.148Z,3.36
2023-04-15T00:28:20.413Z,3.34
2023-04-15T00:30:50.569Z,3.40
2023-04-15T00:33:22.811Z,3.38
2023-04-15T00:35:51.286Z,3.37
2023-04-15T00:38:19.733Z,3.40
2023-04-15T00:40:50.416Z,3.38
2023-04-15T00:43:22.890Z,3.39
2023-04-15T00:45:52.904Z,3.38
2023-04-15T00:48:24.015Z,3.38
2023-04-15T00:50:52.053Z,3.43
2023-04-15T00:53:26.758Z,3.42
2023-04-15T00:55:57.966Z,3.44
2023-04-15T00:58:29.880Z,3.45
2023-04-15T01:01:04.524Z,3.44
2023-04-15T01:03:33.363Z,3.47
2023-04-15T01:06:02.985Z,3.53
2023-04-15T01:08:33.911Z,3.50
2023-04-15T01:11:04.130Z,3.51
2023-04-15T01:13:32.159Z,3.55
2023-04-15T01:16:03.604Z,3.53
2023-04-15T01:18:31.787Z,3.54
2023-04-15T01:21:02.415Z,3.55
2023-04-15T01:23:33.836Z,3.56
2023-04-15T01:26:01.982Z,3.55
2023-04-15T01:28:33.422Z,3.55
2023-04-15T01:31:11.848Z,3.57
2023-04-15T01:33:44.934Z,3.56
2023-04-15T01:36:15.958Z,3.58
2023-04-15T01:38:45.966Z,3.60
2023-04-15T01:41:14.736Z,3.62
2023-04-15T01:43:48.889Z,3.59
2023-04-15T01:46:22.320Z,3.61
2023-04-15T01:48:52.933Z,3.61
2023-04-15T01:51:21.140Z,3.63
2023-04-15T01:53:53.431Z,3.62
2023-04-15T01:56:22.778Z,3.66
2023-04-15T01:58:51.131Z,3.62
2023-04-15T02:01:23.355Z,3.65
2023-04-15T02:03:51.820Z,3.66
2023-04-15T02:06:22.784Z,3.67
2023-04-15T02:08:52.290Z,3.72
2023-04-15T02:11:23.419Z,3.71
2023-04-15T02:13:53.437Z,3.74
2023-04-15T02:16:27.614Z,3.72
2023-04-15T02:18:55.529Z,3.72
2023-04-15T02:21:24.226Z,3.71
2023-04-15T02:23:54.295Z,3.73
2023-04-15T02:26:26.789Z,3.75
2023-04-15T02:28:56.450Z,3.76
2023-04-15T02:31:25.572Z,3.77
2023-04-15T02:34:01.290Z,3.78
2023-04-15T02:36:32.287Z,3.78
2023-04-15T02:39:02.496Z,3.81
2023-04-15T02:41:31.740Z,3.83
2023-04-15T02:44:05.977Z,3.85
2023-04-15T02:46:33.575Z,3.89
2023-04-15T02:49:04.082Z,3.88
2023-04-15T02:51:34.565Z,3.87
2023-04-15T02:54:03.871Z,3.90
2023-04-15T02:56:31.089Z,3.87
2023-04-15T02:58:59.141Z,3.91
2023-04-15T03:01:35.491Z,3.89
2023-04-15T03:04:03.634Z,3.91
2023-04-15T03:06:31.617Z,3.90
2023-04-15T03:09:02.890Z,3.91
2023-04-15T03:11:43.396Z,3.92
2023-04-15T03:14:12.059Z,3.93
2023-04-15T03:16:42.905Z,3.90
2023-04-15T03:19:21.823Z,3.91
2023-04-15T03:21:52.520Z,3.96
2023-04-15T03:24:21.777Z,3.94
2023-04-15T03:26:49.916Z,3.93
2023-04-15T03:29:24.921Z,3.97
2023-04-15T03:31:52.857Z,3.95
2023-04-15T03:34:20.696Z,4.03
2023-04-15T03:36:48.203Z,4.00
2023-04-15T03:39:25.485Z,4.02
2023-04-15T03:41:55.051Z,4.03
2023-04-15T03:44:22.614Z,4.03
2023-04-15T03:46:51.789Z,4.01
2023-04-15T03:49:23.080Z,4.03
2023-04-15T03:51:51.102Z,4.06
2023-04-15T03:54:21.845Z,4.06
2023-04-15T03:56:49.200Z,4.08
2023-04-15T03:59:22.729Z,4.07
2023-04-15T04:01:51.077Z,4.06
2023-04-15T04:04:24.400Z,4.08
2023-04-15T04:06:53.928Z,4.09
2023-04-15T04:09:22.011Z,4.19
2023-04-15T04:11:49.004Z,4.18
2023-04-15T04:14:17.077Z,4.18
2023-04-15T04:16:46.520Z,4.18
2023-04-15T04:19:15.066Z,4.22
2023-04-15T04:21:45.805Z,4.21
2023-04-15T04:24:13.376Z,4.22
2023-04-15T04:26:46.473Z,4.23
2023-04-15T04:29:18.123Z,4.27
2023-04-15T04:31:47.465Z,4.30
2023-04-15T04:34:15.527Z,4.29
2023-04-15T04:36:43.038Z,4.33
2023-04-15T04:39:15.544Z,4.31
2023-04-15T04:41:46.175Z,4.33
2023-04-15T04:44:14.125Z,4.37
2023-04-15T04:46:41.748Z,4.42
2023-04-15T04:49:20.866Z,4.41
2023-04-15T04:51:56.113Z,4.44
2023-04-15T04:54:23.864Z,4.48
2023-04-15T04:56:53.124Z,4.51
2023-04-15T04:59:32.905Z,4.55
2023-04-15T05:02:03.989Z,4.59
2023-04-15T05:04:34.752Z,4.58
2023-04-15T05:07:04.158Z,4.62
2023-04-15T05:09:34.111Z,4.65
2023-04-15T05:12:01.876Z,4.65
2023-04-15T05:14:40.006Z,4.65
2023-04-15T05:17:11.383Z,4.67
2023-04-15T05:19:43.924Z,4.67
2023-04-15T05:22:14.428Z,4.69
2023-04-15T05:24:42.297Z,4.69
2023-04-15T05:27:12.151Z,4.67
2023-04-15T05:29:47.195Z,4.74
2023-04-15T05:32:18.135Z,4.82
2023-04-15T05:35:04.998Z,4.90
2023-04-15T05:37:32.565Z,4.92
2023-04-15T05:40:03.202Z,4.94
2023-04-15T05:42:32.224Z,4.93
2023-04-15T05:45:09.223Z,4.93
2023-04-15T05:47:39.989Z,4.95
2023-04-15T05:50:10.547Z,4.99
2023-04-15T05:52:39.701Z,4.98
2023-04-15T05:55:09.112Z,4.91
2023-04-15T05:57:40.163Z,4.92
2023-04-15T06:00:13.758Z,5.03
2023-04-15T06:02:45.371Z,5.15
2023-04-15T06:05:15.385Z,5.12
2023-04-15T06:07:44.232Z,5.22
2023-04-15T06:10:14.340Z,5.35
2023-04-15T06:12:41.433Z,5.40
2023-04-15T06:15:18.170Z,5.44
2023-04-15T06:17:48.257Z,5.54
2023-04-15T06:20:20.962Z,5.81
2023-04-15T06:22:49.389Z,6.04
2023-04-15T06:25:17.201Z,6.25
2023-04-15T06:27:45.509Z,6.36
2023-04-15T06:30:13.091Z,6.46
2023-04-15T06:32:41.998Z,6.59
2023-04-15T06:35:14.161Z,6.70
2023-04-15T06:37:41.880Z,6.92
2023-04-15T06:40:13.358Z,7.30
2023-04-15T06:42:46.572Z,7.41
2023-04-15T06:45:21.450Z,7.02
2023-04-15T06:47:51.867Z,7.10
2023-04-15T06:50:19.875Z,7.12
2023-04-15T06:52:50.979Z,6.82
2023-04-15T06:55:21.736Z,6.60
2023-04-15T06:57:49.009Z,6.50
2023-04-15T07:00:18.509Z,6.45
2023-04-15T07:02:55.904Z,6.48
2023-04-15T07:05:26.275Z,6.59
2023-04-15T07:07:55.940Z,6.66
2023-04-15T07:10:26.382Z,6.79
2023-04-15T07:12:55.211Z,6.97
2023-04-15T07:15:24.017Z,7.09
2023-04-15T07:17:54.818Z,7.26
2023-04-15T07:20:25.203Z,7.58
2023-04-15T07:22:53.431Z,7.88
2023-04-15T07:25:24.684Z,7.81
2023-04-15T07:27:53.077Z,7.95
2023-04-15T07:30:20.556Z,7.78
2023-04-15T07:32:50.823Z,7.61
2023-04-15T07:35:21.486Z,7.49
2023-04-15T07:37:48.737Z,7.44
2023-04-15T07:40:17.346Z,7.52
2023-04-15T07:42:44.487Z,8.01
2023-04-15T07:45:17.823Z,8.61
2023-04-15T07:47:47.474Z,8.72
2023-04-15T07:50:17.237Z,9.64
2023-04-15T07:52:48.680Z,9.13
2023-04-15T07:55:28.308Z,8.74
2023-04-15T07:57:56.306Z,8.20
2023-04-15T08:00:23.870Z,8.03
2023-04-15T08:02:53.438Z,7.94
2023-04-15T08:05:28.126Z,7.79
2023-04-15T08:07:55.705Z,7.91
2023-04-15T08:10:28.445Z,7.67
2023-04-15T08:13:00.125Z,7.60
2023-04-15T08:15:31.170Z,7.49
2023-04-15T08:18:02.986Z,7.67
2023-04-15T08:20:33.785Z,7.93
2023-04-15T08:23:02.481Z,9.05
2023-04-15T08:25:41.890Z,11.62
2023-04-15T08:28:14.147Z,12.90
2023-04-15T08:30:44.769Z,11.15
2023-04-15T08:33:13.703Z,10.63
2023-04-15T08:35:42.194Z,10.57
2023-04-15T08:38:10.324Z,10.36
2023-04-15T08:40:42.650Z,10.13
2023-04-15T08:43:26.683Z,9.79
2023-04-15T08:46:00.209Z,9.75
2023-04-15T08:48:29.520Z,10.11
2023-04-15T08:51:01.733Z,10.17
2023-04-15T08:53:30.164Z,9.84
2023-04-15T08:56:07.326Z,9.78
2023-04-15T08:58:36.711Z,10.67
2023-04-15T09:01:08.845Z,10.86
2023-04-15T09:03:41.384Z,11.60
2023-04-15T09:06:30.252Z,11.52
2023-04-15T09:09:00.067Z,11.06
2023-04-15T09:11:33.245Z,10.18
2023-04-15T09:14:02.542Z,9.58
2023-04-15T09:16:54.943Z,9.21
2023-04-15T09:19:25.758Z,9.23
2023-04-15T09:21:59.665Z,9.22
2023-04-15T09:24:40.241Z,9.11
2023-04-15T09:27:08.147Z,9.10
2023-04-15T09:29:43.540Z,8.98
2023-04-15T09:32:14.621Z,9.16
2023-04-15T09:34:48.410Z,8.98
2023-04-15T09:37:32.083Z,8.57
2023-04-15T09:40:02.859Z,8.44
2023-04-15T09:42:33.780Z,8.53
2023-04-15T09:45:10.227Z,8.66
2023-04-15T09:47:41.947Z,8.66
2023-04-15T09:50:09.380Z,8.40
2023-04-15T09:52:43.653Z,8.40
2023-04-15T09:55:20.433Z,8.25
2023-04-15T09:57:55.586Z,8.25
2023-04-15T10:00:25.695Z,8.33
2023-04-15T10:02:58.333Z,8.34
2023-04-15T10:05:26.781Z,8.41
2023-04-15T10:08:03.302Z,8.84
2023-04-15T10:10:31.842Z,9.23
2023-04-15T10:13:10.401Z,9.46
2023-04-15T10:15:39.006Z,9.37
2023-04-15T10:18:08.345Z,9.19
2023-04-15T10:20:37.282Z,8.96
2023-04-15T10:23:25.923Z,8.99
2023-04-15T10:26:00.421Z,9.22
2023-04-15T10:28:29.694Z,9.20
2023-04-15T10:31:01.857Z,8.84
2023-04-15T10:33:31.608Z,8.72
2023-04-15T10:36:03.899Z,8.31
2023-04-15T10:38:38.124Z,8.11
2023-04-15T10:41:19.949Z,8.13
2023-04-15T10:43:49.882Z,8.14
2023-04-15T10:46:23.258Z,8.06
2023-04-15T10:48:53.578Z,8.09
2023-04-15T10:51:32.153Z,8.28
2023-04-15T10:54:01.278Z,8.23
2023-04-15T10:56:32.936Z,8.27
2023-04-15T10:59:03.674Z,8.33
2023-04-15T11:01:57.500Z,8.44
2023-04-15T11:04:45.123Z,8.29
2023-04-15T11:07:21.722Z,8.44
2023-04-15T11:09:50.909Z,8.45
2023-04-15T11:12:19.217Z,8.52
2023-04-15T11:14:49.878Z,8.37
2023-04-15T11:17:30.017Z,8.61
2023-04-15T11:20:00.800Z,8.49
2023-04-15T11:22:32.454Z,8.45
2023-04-15T11:25:02.107Z,8.66
2023-04-15T11:27:31.272Z,8.71
2023-04-15T11:29:58.838Z,8.96
2023-04-15T11:32:27.247Z,8.85
2023-04-15T11:34:58.692Z,8.82
2023-04-15T11:37:35.854Z,8.86
2023-04-15T11:40:06.691Z,8.75
2023-04-15T11:42:49.506Z,8.86
2023-04-15T11:45:23.617Z,8.59
2023-04-15T11:47:53.986Z,8.51
2023-04-15T11:50:23.471Z,8.47
2023-04-15T11:52:58.341Z,8.45
2023-04-15T11:55:28.781Z,8.64
2023-04-15T11:58:08.424Z,8.54
2023-04-15T12:00:35.861Z,8.60
2023-04-15T12:03:15.303Z,8.75
2023-04-15T12:06:01.280Z,8.95
2023-04-15T12:08:51.224Z,9.08
2023-04-15T12:11:18.730Z,8.93
2023-04-15T12:13:50.173Z,9.01
2023-04-15T12:16:20.039Z,9.03
2023-04-15T12:18:50.292Z,9.17
2023-04-15T12:21:21.665Z,8.90
2023-04-15T12:23:52.421Z,8.73
2023-04-15T12:26:28.350Z,8.87
2023-04-15T12:29:05.846Z,9.13
2023-04-15T12:31:33.387Z,9.05
2023-04-15T12:34:01.223Z,8.98
2023-04-15T12:36:28.665Z,9.05
2023-04-15T12:38:56.096Z,9.09
2023-04-15T12:41:24.576Z,9.09
2023-04-15T12:43:52.196Z,9.31
2023-04-15T12:46:19.242Z,9.30
2023-04-15T12:48:48.794Z,9.33
2023-04-15T12:51:15.695Z,9.41
2023-04-15T12:53:43.124Z,9.22
2023-04-15T12:56:10.197Z,9.12
2023-04-15T12:58:37.576Z,9.24
2023-04-15T13:01:04.635Z,9.27
2023-04-15T13:03:34.538Z,9.16
2023-04-15T13:06:02.475Z,9.25
2023-04-15T13:08:32.460Z,9.22
2023-04-15T13:11:01.846Z,9.40
2023-04-15T13:13:29.161Z,9.68
2023-04-15T13:15:56.599Z,9.77
2023-04-15T13:18:23.964Z,9.94
2023-04-15T13:20:51.360Z,10.39
2023-04-15T13:23:18.718Z,10.26
2023-04-15T13:25:45.982Z,10.31
2023-04-15T13:28:18.242Z,10.39
2023-04-15T13:30:46.023Z,10.68
2023-04-15T13:33:13.272Z,10.59
2023-04-15T13:35:42.583Z,10.70
2023-04-15T13:38:09.939Z,10.44
2023-04-15T13:40:36.795Z,10.49
2023-04-15T13:43:12.326Z,10.54
2023-04-15T13:45:39.382Z,10.29
2023-04-15T13:48:06.642Z,10.16
2023-04-15T13:50:33.595Z,10.10
2023-04-15T13:53:01.114Z,9.67
2023-04-15T13:55:28.820Z,9.65
2023-04-15T13:57:58.719Z,9.94
2023-04-15T14:00:25.716Z,10.18
2023-04-15T14:02:53.164Z,9.99
2023-04-15T14:05:20.469Z,9.73
2023-04-15T14:07:47.997Z,9.59
2023-04-15T14:10:14.994Z,9.61
2023-04-15T14:12:42.236Z,9.65
2023-04-15T14:15:09.439Z,9.61
2023-04-15T14:17:37.032Z,9.58
2023-04-15T14:20:04.184Z,9.67
2023-04-15T14:22:34.069Z,9.92
2023-04-15T14:25:01.860Z,10.00
2023-04-15T14:27:29.190Z,10.33
2023-04-15T14:29:59.077Z,10.14
2023-04-15T14:32:27.313Z,10.08
2023-04-15T14:34:54.489Z,10.22
2023-04-15T14:37:21.822Z,10.31
2023-04-15T14:39:51.332Z,10.01
2023-04-15T14:42:21.175Z,9.73
2023-04-15T14:44:50.935Z,9.77
2023-04-15T14:47:18.384Z,9.71
2023-04-15T14:49:47.861Z,9.56
2023-04-15T14:52:15.834Z,9.59
2023-04-15T14:54:43.508Z,9.57
2023-04-15T14:57:10.907Z,9.52
2023-04-15T14:59:40.720Z,9.51
2023-04-15T15:02:08.604Z,9.36
2023-04-15T15:04:36.230Z,9.15
2023-04-15T15:07:03.700Z,9.23
2023-04-15T15:09:32.389Z,9.04
2023-04-15T15:12:04.911Z,8.99
2023-04-15T15:14:33.772Z,8.83
2023-04-15T15:17:04.725Z,8.84
2023-04-15T15:19:31.810Z,8.77
2023-04-15T15:22:01.467Z,8.62
2023-04-15T15:24:28.937Z,8.47
2023-04-15T15:27:04.279Z,8.42
2023-04-15T15:29:37.739Z,8.35
2023-04-15T15:32:08.003Z,8.30
2023-04-15T15:34:37.328Z,8.31
2023-04-15T15:37:05.849Z,8.26
2023-04-15T15:39:43.797Z,8.27
2023-04-15T15:42:15.429Z,8.32
2023-04-15T15:44:45.066Z,8.38
2023-04-15T15:47:17.175Z,8.42
2023-04-15T15:49:45.714Z,8.41
2023-04-15T15:52:13.080Z,8.37
2023-04-15T15:54:41.387Z,8.39
2023-04-15T15:57:09.311Z,8.42
2023-04-15T15:59:43.543Z,8.41
2023-04-15T16:02:16.793Z,8.37
2023-04-15T16:04:44.033Z,8.34
2023-04-15T16:07:19.229Z,8.27
2023-04-15T16:09:49.129Z,8.27
2023-04-15T16:12:18.323Z,8.22
2023-04-15T16:14:48.934Z,8.12
2023-04-15T16:17:16.683Z,8.10
2023-04-15T16:19:55.440Z,8.06
2023-04-15T16:22:31.367Z,8.07
2023-04-15T16:24:59.916Z,8.09
2023-04-15T16:27:29.049Z,8.09
2023-04-15T16:30:04.715Z,8.09
2023-04-15T16:32:35.158Z,8.09
2023-04-15T16:35:08.845Z,8.07
2023-04-15T16:37:39.054Z,8.02
2023-04-15T16:40:06.805Z,8.03
2023-04-15T16:42:37.149Z,8.02
2023-04-15T16:45:06.162Z,8.00
2023-04-15T16:47:36.598Z,7.93
2023-04-15T16:50:12.084Z,7.92
2023-04-15T16:52:41.831Z,7.85
2023-04-15T16:55:09.584Z,7.85
2023-04-15T16:58:00.377Z,7.83
2023-04-15T17:00:29.665Z,7.81
2023-04-15T17:03:05.272Z,7.73
2023-04-15T17:05:35.341Z,7.71
2023-04-15T17:08:04.956Z,7.65
2023-04-15T17:10:32.954Z,7.63
2023-04-15T17:13:01.346Z,7.60
2023-04-15T17:15:32.942Z,7.55
2023-04-15T17:18:02.660Z,7.53
2023-04-15T17:20:33.582Z,7.47
2023-04-15T17:23:03.394Z,7.45
2023-04-15T17:25:33.120Z,7.41
2023-04-15T17:28:02.203Z,7.42
2023-04-15T17:30:29.711Z,7.36
2023-04-15T17:33:03.760Z,7.35
2023-04-15T17:35:56.331Z,7.28
2023-04-15T17:38:30.491Z,7.21
2023-04-15T17:41:03.758Z,7.17
2023-04-15T17:43:32.368Z,7.15
2023-04-15T17:46:04.494Z,7.04
2023-04-15T17:48:37.589Z,7.04
2023-04-15T17:51:07.501Z,6.96
2023-04-15T17:53:39.547Z,6.85
2023-04-15T17:56:13.375Z,6.79
2023-04-15T17:58:46.884Z,6.71
2023-04-15T18:01:14.992Z,6.60
2023-04-15T18:03:42.956Z,6.51
2023-04-15T18:06:12.180Z,6.46
2023-04-15T18:08:43.247Z,6.33
2023-04-15T18:11:15.286Z,6.17
2023-04-15T18:13:44.212Z,6.03
2023-04-15T18:16:14.074Z,5.89
2023-04-15T18:18:44.263Z,5.79
2023-04-15T18:21:17.973Z,5.73
2023-04-15T18:23:54.128Z,5.63
2023-04-15T18:26:22.649Z,5.57
2023-04-15T18:28:55.489Z,5.52
2023-04-15T18:31:23.450Z,5.42
2023-04-15T18:33:53.132Z,5.31
2023-04-15T18:36:20.897Z,5.22
2023-04-15T18:38:49.571Z,5.15
2023-04-15T18:41:18.596Z,5.05
2023-04-15T18:43:49.628Z,4.95
2023-04-15T18:46:19.088Z,4.87
2023-04-15T18:48:48.166Z,4.79
2023-04-15T18:51:17.406Z,4.72
2023-04-15T18:53:53.189Z,4.64
2023-04-15T18:56:28.609Z,4.56
2023-04-15T18:59:09.004Z,4.50
2023-04-15T19:01:53.029Z,4.43
2023-04-15T19:04:21.820Z,4.36
2023-04-15T19:06:56.726Z,4.32
2023-04-15T19:09:25.002Z,4.27
2023-04-15T19:11:57.814Z,4.20
2023-04-15T19:14:32.658Z,4.23
2023-04-15T19:17:05.230Z,4.27
2023-04-15T19:19:52.409Z,4.25
2023-04-15T19:22:24.177Z,4.23
2023-04-15T19:24:52.079Z,4.23
2023-04-15T19:27:22.536Z,4.27
2023-04-15T19:29:56.073Z,4.28
2023-04-15T19:32:26.148Z,4.33
2023-04-15T19:35:11.305Z,4.37
2023-04-15T19:37:41.630Z,4.31
2023-04-15T19:40:09.689Z,4.31
2023-04-15T19:42:48.803Z,4.25
2023-04-15T19:45:29.058Z,4.19
2023-04-15T19:48:02.946Z,4.13
2023-04-15T19:50:35.307Z,4.10
2023-04-15T19:53:03.186Z,4.05
2023-04-15T19:55:31.104Z,3.99
2023-04-15T19:58:05.345Z,3.92
2023-04-15T20:00:38.406Z,3.89
2023-04-15T20:03:08.482Z,3.83
2023-04-15T20:05:41.002Z,3.84
2023-04-15T20:08:12.632Z,3.85
2023-04-15T20:10:48.435Z,3.84
2023-04-15T20:13:16.671Z,3.79
2023-04-15T20:15:45.641Z,3.79
2023-04-15T20:18:25.613Z,3.75
2023-04-15T20:21:04.475Z,3.74
2023-04-15T20:23:42.992Z,3.71
2023-04-15T20:26:13.368Z,3.69
2023-04-15T20:28:44.145Z,3.69
2023-04-15T20:31:14.746Z,3.67
2023-04-15T20:33:43.257Z,3.66
2023-04-15T20:36:16.349Z,3.66
2023-04-15T20:38:44.594Z,3.66
2023-04-15T20:41:14.892Z,3.68
2023-04-15T20:43:45.738Z,3.71
2023-04-15T20:46:21.214Z,3.74
2023-04-15T20:48:55.629Z,3.77
2023-04-15T20:51:22.872Z,3.80
2023-04-15T20:53:53.431Z,3.83
2023-04-15T20:56:24.171Z,3.85
2023-04-15T20:58:54.324Z,3.88
2023-04-15T21:01:24.909Z,3.90
2023-04-15T21:03:55.309Z,3.92
2023-04-15T21:06:28.399Z,3.93
2023-04-15T21:08:59.668Z,3.95
2023-04-15T21:14:07.693Z,3.95
2023-04-15T21:16:38.055Z,3.93
2023-04-15T21:19:07.833Z,3.92
2023-04-15T21:21:36.284Z,3.90
2023-04-15T21:24:03.784Z,3.86
2023-04-15T21:26:36.639Z,3.84
2023-04-15T21:29:04.344Z,3.82
2023-04-15T21:31:33.225Z,3.76
2023-04-15T21:34:03.721Z,3.71
2023-04-15T21:36:31.793Z,3.67
2023-04-15T21:38:59.378Z,3.61
2023-04-15T21:41:31.172Z,3.58
2023-04-15T21:43:59.826Z,3.57
2023-04-15T21:46:33.010Z,3.52
2023-04-15T21:49:03.473Z,3.44
2023-04-15T21:51:33.626Z,3.38
2023-04-15T21:54:05.487Z,3.32
2023-04-15T21:56:47.637Z,3.25
2023-04-15T21:59:19.061Z,3.19
2023-04-15T22:01:49.375Z,3.15
2023-04-15T22:04:23.202Z,3.08
2023-04-15T22:07:11.552Z,3.03
2023-04-15T22:09:39.069Z,3.09
2023-04-15T22:12:07.121Z,3.05
2023-04-15T22:14:36.192Z,2.97
2023-04-15T22:17:10.729Z,2.87
2023-04-15T22:19:42.781Z,2.78
2023-04-15T22:22:12.239Z,2.73
2023-04-15T22:24:49.067Z,2.72
2023-04-15T22:27:20.773Z,2.65
2023-04-15T22:29:48.237Z,2.60
2023-04-15T22:32:16.604Z,2.54
2023-04-15T22:34:45.248Z,2.49
2023-04-15T22:37:12.402Z,2.45
2023-04-15T22:39:44.235Z,2.40
2023-04-15T22:42:14.846Z,2.39
2023-04-15T22:44:46.693Z,2.37
2023-04-15T22:47:17.146Z,2.33
2023-04-15T22:49:49.929Z,2.37
2023-04-15T22:52:29.537Z,2.45
2023-04-15T22:55:07.054Z,2.45
2023-04-15T22:57:34.891Z,2.41
2023-04-15T23:00:06.473Z,2.44
2023-04-15T23:02:35.203Z,2.41
2023-04-15T23:05:12.449Z,2.40
2023-04-15T23:07:40.917Z,2.41
2023-04-15T23:10:09.712Z,2.45
2023-04-15T23:12:37.384Z,2.50
2023-04-15T23:15:09.176Z,2.51
2023-04-15T23:17:37.675Z,2.56
2023-04-15T23:20:10.255Z,2.60
2023-04-15T23:22:44.161Z,2.62
2023-04-15T23:25:14.051Z,2.66
2023-04-15T23:27:42.543Z,2.65
2023-04-15T23:30:15.285Z,2.67
2023-04-15T23:32:43.862Z,2.71
2023-04-15T23:35:11.380Z,2.74
2023-04-15T23:37:42.205Z,2.93
2023-04-15T23:40:12.876Z,2.97
2023-04-15T23:42:40.933Z,3.08
2023-04-15T23:45:11.651Z,3.11
2023-04-15T23:47:41.671Z,3.18
2023-04-15T23:50:11.189Z,3.24
2023-04-15T23:52:41.154Z,3.29
2023-04-15T23:55:12.510Z,3.32
2023-04-15T23:57:43.022Z,3.34
